sensor_id;sensor_type;location;lat;lon;timestamp;temperature;humidity
4356;DHT22;64374;51.482;7.408;2024-03-23T00:54:34;12.00;99.90
4356;DHT22;64374;51.482;7.408;2024-03-23T00:57:00;11.70;99.90
4356;DHT22;64374;51.482;7.408;2024-03-23T00:59:28;11.60;99.90
4356;DHT22;64374;51.482;7.408;2024-03-23T01:01:54;12.00;99.90
4356;DHT22;64374;51.482;7.408;2024-03-23T01:04:21;12.00;99.90
4356;DHT22;64374;51.482;7.408;2024-03-23T01:06:47;11.80;99.90
4356;DHT22;64374;51.482;7.408;2024-03-23T01:09:14;11.80;99.90
4356;DHT22;64374;51.482;7.408;2024-03-23T01:11:44;11.60;99.90
4356;DHT22;64374;51.482;7.408;2024-03-23T01:14:11;11.70;99.90
4356;DHT22;64374;51.482;7.408;2024-03-23T01:16:37;12.00;99.90
4356;DHT22;64374;51.482;7.408;2024-03-23T01:19:05;12.00;99.90
4356;DHT22;64374;51.482;7.408;2024-03-23T01:21:32;12.10;99.90
4356;DHT22;64374;51.482;7.408;2024-03-23T01:24:02;12.10;99.90
4356;DHT22;64374;51.482;7.408;2024-03-23T01:26:29;12.20;99.90
4356;DHT22;64374;51.482;7.408;2024-03-23T01:28:57;12.30;99.90
4356;DHT22;64374;51.482;7.408;2024-03-23T01:31:23;12.00;99.90
4356;DHT22;64374;51.482;7.408;2024-03-23T01:33:50;12.10;99.90
4356;DHT22;64374;51.482;7.408;2024-03-23T01:36:16;12.20;99.90
4356;DHT22;64374;51.482;7.408;2024-03-23T01:38:48;12.20;99.90
4356;DHT22;64374;51.482;7.408;2024-03-23T01:41:15;11.50;99.90
4356;DHT22;64374;51.482;7.408;2024-03-23T01:43:42;11.50;99.90
4356;DHT22;64374;51.482;7.408;2024-03-23T01:46:13;11.50;99.90
4356;DHT22;64374;51.482;7.408;2024-03-23T01:48:40;11.60;99.90
4356;DHT22;64374;51.482;7.408;2024-03-23T01:51:06;11.80;99.90
4356;DHT22;64374;51.482;7.408;2024-03-23T01:53:33;12.00;99.90
4356;DHT22;64374;51.482;7.408;2024-03-23T01:55:59;11.90;99.90
4356;DHT22;64374;51.482;7.408;2024-03-23T01:58:27;11.60;99.90
4356;DHT22;64374;51.482;7.408;2024-03-23T02:00:53;11.70;99.90
4356;DHT22;64374;51.482;7.408;2024-03-23T02:03:24;11.50;99.90
4356;DHT22;64374;51.482;7.408;2024-03-23T02:05:51;11.40;99.90
4356;DHT22;64374;51.482;7.408;2024-03-23T02:08:20;11.60;99.90
4356;DHT22;64374;51.482;7.408;2024-03-23T02:10:47;11.60;99.90
4356;DHT22;64374;51.482;7.408;2024-03-23T02:13:15;11.60;99.90
4356;DHT22;64374;51.482;7.408;2024-03-23T02:15:41;12.10;99.90
4356;DHT22;64374;51.482;7.408;2024-03-23T02:18:11;12.40;99.90
4356;DHT22;64374;51.482;7.408;2024-03-23T02:20:38;12.40;99.90
4356;DHT22;64374;51.482;7.408;2024-03-23T02:23:13;11.50;99.90
4356;DHT22;64374;51.482;7.408;2024-03-23T02:25:39;11.10;99.90
4356;DHT22;64374;51.482;7.408;2024-03-23T02:28:08;10.90;99.90
4356;DHT22;64374;51.482;7.408;2024-03-23T02:30:35;11.00;99.90
4356;DHT22;64374;51.482;7.408;2024-03-23T02:33:02;11.60;99.90
4356;DHT22;64374;51.482;7.408;2024-03-23T02:35:28;12.20;99.90
4356;DHT22;64374;51.482;7.408;2024-03-23T02:37:55;12.30;99.90
4356;DHT22;64374;51.482;7.408;2024-03-23T02:40:24;12.40;99.90
4356;DHT22;64374;51.482;7.408;2024-03-23T02:42:57;11.80;99.90
4356;DHT22;64374;51.482;7.408;2024-03-23T02:45:23;11.30;99.90
4356;DHT22;64374;51.482;7.408;2024-03-23T02:47:50;11.40;99.90
4356;DHT22;64374;51.482;7.408;2024-03-23T02:50:18;11.50;99.90
4356;DHT22;64374;51.482;7.408;2024-03-23T02:52:45;10.90;99.90
4356;DHT22;64374;51.482;7.408;2024-03-23T02:55:11;11.00;99.90
4356;DHT22;64374;51.482;7.408;2024-03-23T02:57:40;11.20;99.90
4356;DHT22;64374;51.482;7.408;2024-03-23T03:00:07;11.40;99.90
4356;DHT22;64374;51.482;7.408;2024-03-23T03:02:37;11.10;99.90
4356;DHT22;64374;51.482;7.408;2024-03-23T03:05:03;11.40;99.90
4356;DHT22;64374;51.482;7.408;2024-03-23T03:07:31;11.70;99.90
4356;DHT22;64374;51.482;7.408;2024-03-23T03:09:57;11.50;99.90
4356;DHT22;64374;51.482;7.408;2024-03-23T03:12:24;11.30;99.90
4356;DHT22;64374;51.482;7.408;2024-03-23T03:14:52;11.50;99.90
4356;DHT22;64374;51.482;7.408;2024-03-23T03:17:19;12.00;99.90
4356;DHT22;64374;51.482;7.408;2024-03-23T03:19:46;12.20;99.90
4356;DHT22;64374;51.482;7.408;2024-03-23T03:22:13;12.30;99.90
4356;DHT22;64374;51.482;7.408;2024-03-23T03:24:39;12.30;99.90
4356;DHT22;64374;51.482;7.408;2024-03-23T03:27:09;12.70;99.90
4356;DHT22;64374;51.482;7.408;2024-03-23T03:29:35;13.00;99.90
4356;DHT22;64374;51.482;7.408;2024-03-23T03:32:11;12.20;99.90
4356;DHT22;64374;51.482;7.408;2024-03-23T03:34:37;12.10;99.90
4356;DHT22;64374;51.482;7.408;2024-03-23T03:37:05;11.40;99.90
4356;DHT22;64374;51.482;7.408;2024-03-23T03:39:31;10.70;99.90
4356;DHT22;64374;51.482;7.408;2024-03-23T03:41:58;10.70;99.90
4356;DHT22;64374;51.482;7.408;2024-03-23T03:44:24;10.60;99.90
4356;DHT22;64374;51.482;7.408;2024-03-23T03:46:51;10.50;99.90
4356;DHT22;64374;51.482;7.408;2024-03-23T03:49:22;10.60;99.90
4356;DHT22;64374;51.482;7.408;2024-03-23T03:51:49;10.60;99.90
4356;DHT22;64374;51.482;7.408;2024-03-23T03:54:15;10.70;99.90
4356;DHT22;64374;51.482;7.408;2024-03-23T03:56:42;11.00;99.90
4356;DHT22;64374;51.482;7.408;2024-03-23T03:59:08;11.50;99.90
4356;DHT22;64374;51.482;7.408;2024-03-23T04:01:36;11.50;99.90
4356;DHT22;64374;51.482;7.408;2024-03-23T04:04:02;11.70;99.90
4356;DHT22;64374;51.482;7.408;2024-03-23T04:06:30;11.80;99.90
4356;DHT22;64374;51.482;7.408;2024-03-23T04:08:56;12.10;99.90
4356;DHT22;64374;51.482;7.408;2024-03-23T04:11:24;10.00;99.90
4356;DHT22;64374;51.482;7.408;2024-03-23T04:13:50;9.90;99.90
4356;DHT22;64374;51.482;7.408;2024-03-23T04:16:26;10.40;99.90
4356;DHT22;64374;51.482;7.408;2024-03-23T04:18:52;10.80;99.90
4356;DHT22;64374;51.482;7.408;2024-03-23T04:21:22;11.10;99.90
4356;DHT22;64374;51.482;7.408;2024-03-23T04:23:50;11.30;99.90
4356;DHT22;64374;51.482;7.408;2024-03-23T04:26:17;11.20;99.90
4356;DHT22;64374;51.482;7.408;2024-03-23T04:28:43;10.90;99.90
4356;DHT22;64374;51.482;7.408;2024-03-23T04:31:10;10.80;99.90
4356;DHT22;64374;51.482;7.408;2024-03-23T04:33:36;10.90;99.90
4356;DHT22;64374;51.482;7.408;2024-03-23T04:36:04;11.20;99.90
4356;DHT22;64374;51.482;7.408;2024-03-23T04:38:30;11.00;99.90
4356;DHT22;64374;51.482;7.408;2024-03-23T04:40:59;10.80;99.90
4356;DHT22;64374;51.482;7.408;2024-03-23T04:43:28;10.30;99.90
4356;DHT22;64374;51.482;7.408;2024-03-23T04:45:55;10.60;99.90
4356;DHT22;64374;51.482;7.408;2024-03-23T04:48:23;10.80;99.90
4356;DHT22;64374;51.482;7.408;2024-03-23T04:50:55;10.70;99.90
4356;DHT22;64374;51.482;7.408;2024-03-23T04:53:23;10.60;99.90
4356;DHT22;64374;51.482;7.408;2024-03-23T04:55:55;10.90;99.90
4356;DHT22;64374;51.482;7.408;2024-03-23T04:58:23;10.30;99.90
4356;DHT22;64374;51.482;7.408;2024-03-23T05:00:53;9.80;99.90
4356;DHT22;64374;51.482;7.408;2024-03-23T05:03:21;10.00;99.90
4356;DHT22;64374;51.482;7.408;2024-03-23T05:05:47;10.00;99.90
4356;DHT22;64374;51.482;7.408;2024-03-23T05:08:15;9.80;99.90
4356;DHT22;64374;51.482;7.408;2024-03-23T05:10:41;9.80;99.90
4356;DHT22;64374;51.482;7.408;2024-03-23T05:13:09;10.40;99.90
4356;DHT22;64374;51.482;7.408;2024-03-23T05:15:36;10.80;99.90
4356;DHT22;64374;51.482;7.408;2024-03-23T05:18:07;11.20;99.90
4356;DHT22;64374;51.482;7.408;2024-03-23T05:20:33;10.90;99.90
4356;DHT22;64374;51.482;7.408;2024-03-23T05:23:00;9.90;99.90
4356;DHT22;64374;51.482;7.408;2024-03-23T05:25:27;9.30;99.90
4356;DHT22;64374;51.482;7.408;2024-03-23T05:27:54;8.40;99.90
4356;DHT22;64374;51.482;7.408;2024-03-23T05:30:20;8.60;99.90
4356;DHT22;64374;51.482;7.408;2024-03-23T05:32:49;9.00;99.90
4356;DHT22;64374;51.482;7.408;2024-03-23T05:35:17;8.80;99.90
4356;DHT22;64374;51.482;7.408;2024-03-23T05:37:46;8.00;99.90
4356;DHT22;64374;51.482;7.408;2024-03-23T05:40:13;8.70;99.90
4356;DHT22;64374;51.482;7.408;2024-03-23T05:42:43;8.50;99.90
4356;DHT22;64374;51.482;7.408;2024-03-23T05:45:09;9.00;99.90
4356;DHT22;64374;51.482;7.408;2024-03-23T05:47:37;8.50;99.90
4356;DHT22;64374;51.482;7.408;2024-03-23T05:50:08;8.80;99.90
4356;DHT22;64374;51.482;7.408;2024-03-23T05:52:38;8.90;99.90
4356;DHT22;64374;51.482;7.408;2024-03-23T05:55:05;8.90;99.90
4356;DHT22;64374;51.482;7.408;2024-03-23T05:57:32;8.90;99.90
4356;DHT22;64374;51.482;7.408;2024-03-23T05:59:59;8.60;99.90
4356;DHT22;64374;51.482;7.408;2024-03-23T06:02:25;9.20;99.90
4356;DHT22;64374;51.482;7.408;2024-03-23T06:04:52;8.80;99.90
4356;DHT22;64374;51.482;7.408;2024-03-23T06:07:20;8.20;99.90
4356;DHT22;64374;51.482;7.408;2024-03-23T06:09:47;8.60;99.90
4356;DHT22;64374;51.482;7.408;2024-03-23T06:12:13;8.30;99.90
4356;DHT22;64374;51.482;7.408;2024-03-23T06:14:42;8.90;99.90
4356;DHT22;64374;51.482;7.408;2024-03-23T06:17:09;9.30;99.90
4356;DHT22;64374;51.482;7.408;2024-03-23T06:19:36;9.30;99.90
4356;DHT22;64374;51.482;7.408;2024-03-23T06:22:02;9.40;99.90
4356;DHT22;64374;51.482;7.408;2024-03-23T06:24:33;8.80;99.90
4356;DHT22;64374;51.482;7.408;2024-03-23T06:26:59;7.90;99.90
4356;DHT22;64374;51.482;7.408;2024-03-23T06:29:30;7.40;99.90
4356;DHT22;64374;51.482;7.408;2024-03-23T06:31:56;7.50;99.90
4356;DHT22;64374;51.482;7.408;2024-03-23T06:34:23;7.90;99.90
4356;DHT22;64374;51.482;7.408;2024-03-23T06:36:49;8.10;99.90
4356;DHT22;64374;51.482;7.408;2024-03-23T06:39:17;8.30;99.90
4356;DHT22;64374;51.482;7.408;2024-03-23T06:41:58;8.30;99.90
4356;DHT22;64374;51.482;7.408;2024-03-23T06:44:25;8.70;99.90
4356;DHT22;64374;51.482;7.408;2024-03-23T06:46:52;8.60;99.90
4356;DHT22;64374;51.482;7.408;2024-03-23T06:49:19;8.40;99.90
4356;DHT22;64374;51.482;7.408;2024-03-23T06:51:45;9.00;99.90
4356;DHT22;64374;51.482;7.408;2024-03-23T06:54:12;9.00;99.90
4356;DHT22;64374;51.482;7.408;2024-03-23T06:56:38;9.30;99.90
4356;DHT22;64374;51.482;7.408;2024-03-23T06:59:07;9.40;99.90
4356;DHT22;64374;51.482;7.408;2024-03-23T07:01:33;9.60;99.90
4356;DHT22;64374;51.482;7.408;2024-03-23T07:04:01;9.80;99.90
4356;DHT22;64374;51.482;7.408;2024-03-23T07:06:28;9.70;99.90
4356;DHT22;64374;51.482;7.408;2024-03-23T07:08:55;9.60;99.90
4356;DHT22;64374;51.482;7.408;2024-03-23T07:11:21;9.70;99.90
4356;DHT22;64374;51.482;7.408;2024-03-23T07:13:49;9.60;99.90
4356;DHT22;64374;51.482;7.408;2024-03-23T07:16:18;9.80;99.90
4356;DHT22;64374;51.482;7.408;2024-03-23T07:18:45;9.90;99.90
4356;DHT22;64374;51.482;7.408;2024-03-23T07:21:11;10.10;99.90
4356;DHT22;64374;51.482;7.408;2024-03-23T07:23:41;9.30;99.90
4356;DHT22;64374;51.482;7.408;2024-03-23T07:26:08;9.30;99.90
4356;DHT22;64374;51.482;7.408;2024-03-23T07:28:35;9.70;99.90
4356;DHT22;64374;51.482;7.408;2024-03-23T07:31:03;9.90;99.90
4356;DHT22;64374;51.482;7.408;2024-03-23T07:33:35;9.70;99.90
4356;DHT22;64374;51.482;7.408;2024-03-23T07:36:01;9.50;99.90
4356;DHT22;64374;51.482;7.408;2024-03-23T07:38:29;9.50;99.90
4356;DHT22;64374;51.482;7.408;2024-03-23T07:41:05;9.70;99.90
4356;DHT22;64374;51.482;7.408;2024-03-23T07:43:32;8.70;99.90
4356;DHT22;64374;51.482;7.408;2024-03-23T07:45:59;8.80;99.90
4356;DHT22;64374;51.482;7.408;2024-03-23T07:48:27;8.90;99.90
4356;DHT22;64374;51.482;7.408;2024-03-23T07:51:07;9.10;99.90
4356;DHT22;64374;51.482;7.408;2024-03-23T07:53:35;9.20;99.90
4356;DHT22;64374;51.482;7.408;2024-03-23T07:56:06;9.10;99.90
4356;DHT22;64374;51.482;7.408;2024-03-23T07:58:33;9.40;99.90
4356;DHT22;64374;51.482;7.408;2024-03-23T08:01:04;9.10;99.90
4356;DHT22;64374;51.482;7.408;2024-03-23T08:03:33;9.10;99.90
4356;DHT22;64374;51.482;7.408;2024-03-23T08:06:08;9.50;99.90
4356;DHT22;64374;51.482;7.408;2024-03-23T08:08:39;9.60;99.90
4356;DHT22;64374;51.482;7.408;2024-03-23T08:11:05;9.40;99.90
4356;DHT22;64374;51.482;7.408;2024-03-23T08:13:33;9.40;99.90
4356;DHT22;64374;51.482;7.408;2024-03-23T08:16:01;9.70;99.90
4356;DHT22;64374;51.482;7.408;2024-03-23T08:18:32;9.70;99.90
4356;DHT22;64374;51.482;7.408;2024-03-23T08:20:58;10.10;99.90
4356;DHT22;64374;51.482;7.408;2024-03-23T08:23:28;10.20;99.90
4356;DHT22;64374;51.482;7.408;2024-03-23T08:25:57;9.80;99.90
4356;DHT22;64374;51.482;7.408;2024-03-23T08:28:25;9.20;99.90
4356;DHT22;64374;51.482;7.408;2024-03-23T08:30:52;9.60;99.90
4356;DHT22;64374;51.482;7.408;2024-03-23T08:33:19;9.60;99.90
4356;DHT22;64374;51.482;7.408;2024-03-23T08:35:53;9.30;99.90
4356;DHT22;64374;51.482;7.408;2024-03-23T08:38:21;9.70;99.90
4356;DHT22;64374;51.482;7.408;2024-03-23T08:40:56;10.20;99.90
4356;DHT22;64374;51.482;7.408;2024-03-23T08:43:24;10.20;99.90
4356;DHT22;64374;51.482;7.408;2024-03-23T08:45:50;9.80;99.90
4356;DHT22;64374;51.482;7.408;2024-03-23T08:48:19;9.80;99.90
4356;DHT22;64374;51.482;7.408;2024-03-23T08:50:46;9.30;99.90
4356;DHT22;64374;51.482;7.408;2024-03-23T08:53:14;9.60;99.90
4356;DHT22;64374;51.482;7.408;2024-03-23T08:55:41;10.10;99.90
4356;DHT22;64374;51.482;7.408;2024-03-23T08:58:09;9.90;99.90
4356;DHT22;64374;51.482;7.408;2024-03-23T09:00:35;10.00;99.90
4356;DHT22;64374;51.482;7.408;2024-03-23T09:03:03;9.40;99.90
4356;DHT22;64374;51.482;7.408;2024-03-23T09:05:31;9.60;99.90
4356;DHT22;64374;51.482;7.408;2024-03-23T09:08:02;9.40;99.90
4356;DHT22;64374;51.482;7.408;2024-03-23T09:10:28;9.60;99.90
4356;DHT22;64374;51.482;7.408;2024-03-23T09:12:56;9.40;99.90
4356;DHT22;64374;51.482;7.408;2024-03-23T09:15:23;10.10;99.90
4356;DHT22;64374;51.482;7.408;2024-03-23T09:17:51;11.00;99.90
4356;DHT22;64374;51.482;7.408;2024-03-23T09:20:17;10.50;99.90
4356;DHT22;64374;51.482;7.408;2024-03-23T09:22:44;10.00;99.90
4356;DHT22;64374;51.482;7.408;2024-03-23T09:25:10;10.20;99.90
4356;DHT22;64374;51.482;7.408;2024-03-23T09:27:37;10.30;99.90
4356;DHT22;64374;51.482;7.408;2024-03-23T09:30:04;10.50;99.90
4356;DHT22;64374;51.482;7.408;2024-03-23T09:32:34;10.20;99.90
4356;DHT22;64374;51.482;7.408;2024-03-23T09:35:00;9.90;99.90
4356;DHT22;64374;51.482;7.408;2024-03-23T09:37:34;9.70;99.90
4356;DHT22;64374;51.482;7.408;2024-03-23T09:40:00;8.90;99.90
4356;DHT22;64374;51.482;7.408;2024-03-23T09:42:27;8.70;99.90
4356;DHT22;64374;51.482;7.408;2024-03-23T09:44:54;8.40;99.90
4356;DHT22;64374;51.482;7.408;2024-03-23T09:47:24;8.40;99.90
4356;DHT22;64374;51.482;7.408;2024-03-23T09:49:52;8.60;99.90
4356;DHT22;64374;51.482;7.408;2024-03-23T09:52:19;8.90;99.90
4356;DHT22;64374;51.482;7.408;2024-03-23T09:54:45;8.90;99.90
4356;DHT22;64374;51.482;7.408;2024-03-23T09:57:13;8.90;99.90
4356;DHT22;64374;51.482;7.408;2024-03-23T09:59:39;8.20;99.90
4356;DHT22;64374;51.482;7.408;2024-03-23T10:02:07;8.70;99.90
4356;DHT22;64374;51.482;7.408;2024-03-23T10:04:36;9.00;99.90
4356;DHT22;64374;51.482;7.408;2024-03-23T10:07:13;9.20;99.90
4356;DHT22;64374;51.482;7.408;2024-03-23T10:09:40;9.50;99.90
4356;DHT22;64374;51.482;7.408;2024-03-23T10:12:10;9.60;99.90
4356;DHT22;64374;51.482;7.408;2024-03-23T10:14:38;10.00;99.90
4356;DHT22;64374;51.482;7.408;2024-03-23T10:17:15;9.90;99.90
4356;DHT22;64374;51.482;7.408;2024-03-23T10:19:44;9.60;99.90
4356;DHT22;64374;51.482;7.408;2024-03-23T10:22:14;10.20;99.90
4356;DHT22;64374;51.482;7.408;2024-03-23T10:24:41;10.70;99.90
4356;DHT22;64374;51.482;7.408;2024-03-23T10:27:08;10.40;99.90
4356;DHT22;64374;51.482;7.408;2024-03-23T10:29:35;9.90;99.90
4356;DHT22;64374;51.482;7.408;2024-03-23T10:32:13;10.30;99.90
4356;DHT22;64374;51.482;7.408;2024-03-23T10:34:40;10.90;99.90
4356;DHT22;64374;51.482;7.408;2024-03-23T10:37:09;10.60;99.90
4356;DHT22;64374;51.482;7.408;2024-03-23T10:39:38;11.10;99.90
4356;DHT22;64374;51.482;7.408;2024-03-23T10:42:07;11.60;99.90
4356;DHT22;64374;51.482;7.408;2024-03-23T10:44:34;12.00;99.90
4356;DHT22;64374;51.482;7.408;2024-03-23T10:47:02;12.00;99.90
4356;DHT22;64374;51.482;7.408;2024-03-23T10:49:30;11.60;99.90
4356;DHT22;64374;51.482;7.408;2024-03-23T10:51:58;12.00;99.90
4356;DHT22;64374;51.482;7.408;2024-03-23T10:54:25;11.90;99.90
4356;DHT22;64374;51.482;7.408;2024-03-23T10:56:57;12.00;99.90
4356;DHT22;64374;51.482;7.408;2024-03-23T10:59:26;12.30;99.90
4356;DHT22;64374;51.482;7.408;2024-03-23T11:01:54;12.40;99.90
4356;DHT22;64374;51.482;7.408;2024-03-23T11:04:36;12.20;99.90
4356;DHT22;64374;51.482;7.408;2024-03-23T11:07:28;12.30;99.90
4356;DHT22;64374;51.482;7.408;2024-03-23T11:09:56;12.60;99.90
4356;DHT22;64374;51.482;7.408;2024-03-23T11:12:31;12.00;99.90
4356;DHT22;64374;51.482;7.408;2024-03-23T11:15:02;12.50;99.90
4356;DHT22;64374;51.482;7.408;2024-03-23T11:17:30;10.40;99.90
4356;DHT22;64374;51.482;7.408;2024-03-23T11:19:58;8.80;99.90
4356;DHT22;64374;51.482;7.408;2024-03-23T11:22:43;7.90;99.90
4356;DHT22;64374;51.482;7.408;2024-03-23T11:25:17;7.30;99.90
4356;DHT22;64374;51.482;7.408;2024-03-23T11:27:48;7.10;99.90
4356;DHT22;64374;51.482;7.408;2024-03-23T11:30:18;6.80;99.90
4356;DHT22;64374;51.482;7.408;2024-03-23T11:32:46;7.00;99.90
4356;DHT22;64374;51.482;7.408;2024-03-23T11:35:27;7.50;99.90
4356;DHT22;64374;51.482;7.408;2024-03-23T11:38:06;7.90;99.90
4356;DHT22;64374;51.482;7.408;2024-03-23T11:40:35;8.20;99.90
4356;DHT22;64374;51.482;7.408;2024-03-23T11:43:04;8.60;99.90
4356;DHT22;64374;51.482;7.408;2024-03-23T11:45:36;9.20;99.90
4356;DHT22;64374;51.482;7.408;2024-03-23T11:48:04;10.40;99.90
4356;DHT22;64374;51.482;7.408;2024-03-23T11:50:31;11.70;99.90
4356;DHT22;64374;51.482;7.408;2024-03-23T11:53:14;12.90;99.90
4356;DHT22;64374;51.482;7.408;2024-03-23T11:55:43;13.60;99.90
4356;DHT22;64374;51.482;7.408;2024-03-23T11:58:15;13.00;99.90
4356;DHT22;64374;51.482;7.408;2024-03-23T12:00:57;13.20;99.90
4356;DHT22;64374;51.482;7.408;2024-03-23T12:03:25;12.90;99.90
4356;DHT22;64374;51.482;7.408;2024-03-23T12:05:53;12.40;99.90
4356;DHT22;64374;51.482;7.408;2024-03-23T12:08:22;12.90;99.90
4356;DHT22;64374;51.482;7.408;2024-03-23T12:10:50;12.90;99.90
4356;DHT22;64374;51.482;7.408;2024-03-23T12:13:21;13.60;99.90
4356;DHT22;64374;51.482;7.408;2024-03-23T12:15:49;13.30;99.90
4356;DHT22;64374;51.482;7.408;2024-03-23T12:18:23;12.70;99.90
4356;DHT22;64374;51.482;7.408;2024-03-23T12:20:50;12.50;99.90
4356;DHT22;64374;51.482;7.408;2024-03-23T12:23:17;13.00;99.90
4356;DHT22;64374;51.482;7.408;2024-03-23T12:25:48;13.50;99.90
4356;DHT22;64374;51.482;7.408;2024-03-23T12:28:15;12.80;99.90
4356;DHT22;64374;51.482;7.408;2024-03-23T12:30:42;12.40;99.90
4356;DHT22;64374;51.482;7.408;2024-03-23T12:33:17;11.50;99.90
4356;DHT22;64374;51.482;7.408;2024-03-23T12:35:43;10.90;99.90
4356;DHT22;64374;51.482;7.408;2024-03-23T12:38:17;11.00;99.90
4356;DHT22;64374;51.482;7.408;2024-03-23T12:40:46;10.60;99.90
4356;DHT22;64374;51.482;7.408;2024-03-23T12:43:14;11.20;99.90
4356;DHT22;64374;51.482;7.408;2024-03-23T12:45:40;10.80;99.90
4356;DHT22;64374;51.482;7.408;2024-03-23T12:48:09;10.30;99.90
4356;DHT22;64374;51.482;7.408;2024-03-23T12:50:35;10.20;99.90
4356;DHT22;64374;51.482;7.408;2024-03-23T12:53:10;9.90;99.90
4356;DHT22;64374;51.482;7.408;2024-03-23T12:55:37;10.20;99.90
4356;DHT22;64374;51.482;7.408;2024-03-23T12:58:07;9.80;99.90
4356;DHT22;64374;51.482;7.408;2024-03-23T13:00:37;10.10;99.90
4356;DHT22;64374;51.482;7.408;2024-03-23T13:03:04;10.70;99.90
4356;DHT22;64374;51.482;7.408;2024-03-23T13:05:32;11.30;99.90
4356;DHT22;64374;51.482;7.408;2024-03-23T13:07:59;11.90;99.90
4356;DHT22;64374;51.482;7.408;2024-03-23T13:10:25;11.80;99.90
4356;DHT22;64374;51.482;7.408;2024-03-23T13:12:52;14.60;99.90
4356;DHT22;64374;51.482;7.408;2024-03-23T13:15:19;15.80;99.90
4356;DHT22;64374;51.482;7.408;2024-03-23T13:17:46;15.00;99.90
4356;DHT22;64374;51.482;7.408;2024-03-23T13:20:15;16.50;99.90
4356;DHT22;64374;51.482;7.408;2024-03-23T13:22:44;17.30;99.90
4356;DHT22;64374;51.482;7.408;2024-03-23T13:25:11;15.00;99.90
4356;DHT22;64374;51.482;7.408;2024-03-23T13:27:38;16.90;99.90
4356;DHT22;64374;51.482;7.408;2024-03-23T13:30:05;14.70;99.90
4356;DHT22;64374;51.482;7.408;2024-03-23T13:32:33;12.70;99.90
4356;DHT22;64374;51.482;7.408;2024-03-23T13:34:59;11.10;99.90
4356;DHT22;64374;51.482;7.408;2024-03-23T13:37:27;10.10;99.90
4356;DHT22;64374;51.482;7.408;2024-03-23T13:39:54;9.10;99.90
4356;DHT22;64374;51.482;7.408;2024-03-23T13:42:22;8.80;99.90
4356;DHT22;64374;51.482;7.408;2024-03-23T13:44:51;8.90;99.90
4356;DHT22;64374;51.482;7.408;2024-03-23T13:47:18;9.10;99.90
4356;DHT22;64374;51.482;7.408;2024-03-23T13:49:45;9.80;99.90
4356;DHT22;64374;51.482;7.408;2024-03-23T13:52:27;11.10;99.90
4356;DHT22;64374;51.482;7.408;2024-03-23T13:54:55;10.60;99.90
4356;DHT22;64374;51.482;7.408;2024-03-23T13:57:22;9.80;99.90
4356;DHT22;64374;51.482;7.408;2024-03-23T13:59:51;10.40;99.90
4356;DHT22;64374;51.482;7.408;2024-03-23T14:02:18;10.90;99.90
4356;DHT22;64374;51.482;7.408;2024-03-23T14:04:45;10.80;99.90
4356;DHT22;64374;51.482;7.408;2024-03-23T14:07:11;10.20;99.90
4356;DHT22;64374;51.482;7.408;2024-03-23T14:09:40;9.00;99.90
4356;DHT22;64374;51.482;7.408;2024-03-23T14:12:10;8.90;99.90
4356;DHT22;64374;51.482;7.408;2024-03-23T14:14:37;11.20;99.90
4356;DHT22;64374;51.482;7.408;2024-03-23T14:17:03;12.10;99.90
4356;DHT22;64374;51.482;7.408;2024-03-23T14:19:33;13.70;99.90
4356;DHT22;64374;51.482;7.408;2024-03-23T14:21:59;14.00;99.90
4356;DHT22;64374;51.482;7.408;2024-03-23T14:24:26;13.50;99.90
4356;DHT22;64374;51.482;7.408;2024-03-23T14:26:53;12.50;99.90
4356;DHT22;64374;51.482;7.408;2024-03-23T14:29:21;11.20;99.90
4356;DHT22;64374;51.482;7.408;2024-03-23T14:31:48;11.50;99.90
4356;DHT22;64374;51.482;7.408;2024-03-23T14:34:17;12.60;99.90
4356;DHT22;64374;51.482;7.408;2024-03-23T14:36:43;13.70;99.90
4356;DHT22;64374;51.482;7.408;2024-03-23T14:39:10;14.30;99.90
4356;DHT22;64374;51.482;7.408;2024-03-23T14:41:38;13.00;99.90
4356;DHT22;64374;51.482;7.408;2024-03-23T14:44:06;12.20;99.90
4356;DHT22;64374;51.482;7.408;2024-03-23T14:46:34;12.50;99.90
4356;DHT22;64374;51.482;7.408;2024-03-23T14:49:01;12.80;99.90
4356;DHT22;64374;51.482;7.408;2024-03-23T14:51:28;12.30;99.90
4356;DHT22;64374;51.482;7.408;2024-03-23T14:53:59;12.00;99.90
4356;DHT22;64374;51.482;7.408;2024-03-23T14:56:25;11.10;99.90
4356;DHT22;64374;51.482;7.408;2024-03-23T14:58:52;10.60;99.90
4356;DHT22;64374;51.482;7.408;2024-03-23T15:01:20;10.30;99.90
4356;DHT22;64374;51.482;7.408;2024-03-23T15:03:51;10.50;99.90
4356;DHT22;64374;51.482;7.408;2024-03-23T15:06:19;11.00;99.90
4356;DHT22;64374;51.482;7.408;2024-03-23T15:08:46;10.70;99.90
4356;DHT22;64374;51.482;7.408;2024-03-23T15:11:12;10.80;99.90
4356;DHT22;64374;51.482;7.408;2024-03-23T15:13:39;10.90;99.90
4356;DHT22;64374;51.482;7.408;2024-03-23T15:16:06;10.30;99.90
4356;DHT22;64374;51.482;7.408;2024-03-23T15:18:33;10.60;99.90
4356;DHT22;64374;51.482;7.408;2024-03-23T15:21:10;10.50;99.90
4356;DHT22;64374;51.482;7.408;2024-03-23T15:23:37;11.60;99.90
4356;DHT22;64374;51.482;7.408;2024-03-23T15:26:04;11.00;99.90
4356;DHT22;64374;51.482;7.408;2024-03-23T15:28:36;11.10;99.90
4356;DHT22;64374;51.482;7.408;2024-03-23T15:31:08;10.80;99.90
4356;DHT22;64374;51.482;7.408;2024-03-23T15:33:35;11.00;99.90
4356;DHT22;64374;51.482;7.408;2024-03-23T15:36:04;10.80;99.90
4356;DHT22;64374;51.482;7.408;2024-03-23T15:38:31;10.50;99.90
4356;DHT22;64374;51.482;7.408;2024-03-23T15:40:58;10.60;99.90
4356;DHT22;64374;51.482;7.408;2024-03-23T15:43:26;10.40;99.90
4356;DHT22;64374;51.482;7.408;2024-03-23T15:45:56;10.20;99.90
4356;DHT22;64374;51.482;7.408;2024-03-23T15:48:31;10.50;99.90
4356;DHT22;64374;51.482;7.408;2024-03-23T15:50:58;10.30;99.90
4356;DHT22;64374;51.482;7.408;2024-03-23T15:53:30;10.60;99.90
4356;DHT22;64374;51.482;7.408;2024-03-23T15:55:58;10.80;99.90
4356;DHT22;64374;51.482;7.408;2024-03-23T15:58:26;11.20;99.90
4356;DHT22;64374;51.482;7.408;2024-03-23T16:01:04;11.50;99.90
4356;DHT22;64374;51.482;7.408;2024-03-23T16:03:32;11.40;99.90
4356;DHT22;64374;51.482;7.408;2024-03-23T16:06:00;11.30;99.90
4356;DHT22;64374;51.482;7.408;2024-03-23T16:08:27;11.00;99.90
4356;DHT22;64374;51.482;7.408;2024-03-23T16:10:59;11.20;99.90
4356;DHT22;64374;51.482;7.408;2024-03-23T16:13:26;11.00;99.90
4356;DHT22;64374;51.482;7.408;2024-03-23T16:15:55;10.80;99.90
4356;DHT22;64374;51.482;7.408;2024-03-23T16:18:22;10.10;99.90
4356;DHT22;64374;51.482;7.408;2024-03-23T16:20:56;10.40;99.90
4356;DHT22;64374;51.482;7.408;2024-03-23T16:23:24;10.50;99.90
4356;DHT22;64374;51.482;7.408;2024-03-23T16:25:52;10.40;99.90
4356;DHT22;64374;51.482;7.408;2024-03-23T16:28:29;10.70;99.90
4356;DHT22;64374;51.482;7.408;2024-03-23T16:30:56;10.90;99.90
4356;DHT22;64374;51.482;7.408;2024-03-23T16:33:24;10.70;99.90
4356;DHT22;64374;51.482;7.408;2024-03-23T16:36:01;10.80;99.90
4356;DHT22;64374;51.482;7.408;2024-03-23T16:38:31;10.60;99.90
4356;DHT22;64374;51.482;7.408;2024-03-23T16:40:59;10.50;99.90
4356;DHT22;64374;51.482;7.408;2024-03-23T16:43:28;10.50;99.90
4356;DHT22;64374;51.482;7.408;2024-03-23T16:45:57;10.60;99.90
4356;DHT22;64374;51.482;7.408;2024-03-23T16:48:27;10.50;99.90
4356;DHT22;64374;51.482;7.408;2024-03-23T16:50:57;10.40;99.90
4356;DHT22;64374;51.482;7.408;2024-03-23T16:53:29;10.10;99.90